Latest Weather Observations for Tuggeranong

IDN60901

Issued at 6:25 pm EST Monday 1 September 2014 (issued every 10 minutes, with the page automatically refreshed every 10 minutes)

About weather observations | Map of Canberra area stations | Latest observations for Canberra area | Other Formats
Station Details ID: 070339 Name: TUGGERANONG (ISABELLA PLAINS) AWS Lat: -35.42 Lon: 149.09 Height: 586.7 m
Data from the previous 72 hours. | See also: Recent months at Tuggeranong
Date/Time
EST
Tmp

°C
App
Tmp
°C
Dew
Point
°C
Rel
Hum
%
Delta-T

°C
Wind Press
QNH
hPa
Press
MSL
hPa
Rain
since
9 am
mm
Dir
 
Spd
km/h
Gust
km/h
Spd
kts
Gust
kts
01/06:00pm 14.5 11.1 5.8 56 4.3 NNW 13 19 7 10 1010.8 1010.5 0.0
01/05:30pm 15.0 11.7 6.3 56 4.3 NNW 13 22 7 12 1010.6 - 0.0
01/05:00pm 15.5 11.2 5.4 51 5.0 NW 17 26 9 14 1010.6 1010.3 0.0
01/04:30pm 16.8 12.6 5.7 48 5.5 NW 17 26 9 14 1010.5 - 0.0
01/04:00pm 16.6 11.9 5.3 47 5.6 NW 19 32 10 17 1010.7 1010.4 0.0
01/03:30pm 18.0 12.3 2.7 36 7.2 W 22 35 12 19 1010.7 - 0.0
01/03:00pm 17.6 12.6 3.5 39 6.8 W 19 33 10 18 1011.0 1010.8 0.0
01/02:30pm 17.5 12.3 3.4 39 6.8 W 20 32 11 17 1011.3 - 0.0
01/02:00pm 17.7 13.5 5.9 46 6.0 NW 17 26 9 14 1011.3 1011.1 0.0
01/01:30pm 17.8 13.7 6.0 46 6.0 NNW 17 28 9 15 1011.8 - 0.0
01/01:00pm 17.3 13.4 5.3 45 6.0 NW 15 19 8 10 1012.6 1012.4 0.0
01/12:30pm 17.0 12.8 5.6 47 5.7 WNW 17 24 9 13 1013.3 - 0.0
01/12:00pm 16.8 12.7 6.3 50 5.3 WNW 17 24 9 13 1014.0 1013.8 0.0
01/11:30am 15.3 12.0 6.3 55 4.5 NNW 13 22 7 12 1014.6 - 0.0
01/11:00am 13.8 10.1 6.4 61 3.7 N 15 22 8 12 1015.1 1014.9 0.0
01/10:30am 11.9 10.2 6.0 67 2.9 W 4 9 2 5 1015.8 - 0.0
01/10:00am 8.8 6.3 4.8 76 1.8 WSW 7 9 4 5 1016.1 1015.9 0.0
01/09:30am 8.5 7.1 5.3 80 1.5 WSW 2 7 1 4 1016.3 - 0.0
01/09:00am 5.6 4.2 3.8 88 0.8 CALM 0 0 0 0 1016.7 1017.4 0.0
01/08:30am 4.7 2.9 3.7 93 0.4 WSW 2 6 1 3 1017.1 - 0.0
01/08:00am 3.6 2.0 2.7 94 0.4 CALM 0 0 0 0 1017.1 1017.8 0.0
01/07:30am 2.9 1.3 2.5 97 0.2 CALM 0 0 0 0 1017.1 - 0.0
01/07:00am 0.2 -1.8 -0.1 98 0.1 CALM 0 0 0 0 1017.2 1017.9 0.0
01/06:30am -1.0 -3.2 -1.4 97 0.1 CALM 0 0 0 0 1017.2 - 0.0
01/06:00am -0.7 -2.8 -1.1 97 0.1 CALM 0 0 0 0 1016.9 1017.6 0.0
01/05:30am -1.0 -3.2 -1.7 95 0.2 CALM 0 0 0 0 1016.9 - 0.0
01/05:00am -0.3 -2.4 -0.9 96 0.2 CALM 0 0 0 0 1016.8 1017.5 0.0
01/04:30am 0.2 -1.8 -0.2 97 0.1 CALM 0 0 0 0 1016.6 - 0.0
01/04:00am 0.1 -2.0 -0.5 96 0.2 CALM 0 0 0 0 1016.5 1017.2 0.0
01/03:30am 0.8 -1.1 0.4 97 0.2 CALM 0 0 0 0 1016.4 - 0.0
01/03:00am 0.9 -1.0 0.3 96 0.2 CALM 0 0 0 0 1016.7 1017.4 0.0
01/02:30am 1.8 -0.3 1.5 98 0.1 E 2 7 1 4 1016.6 - 0.0
01/02:00am 2.0 0.3 1.9 99 0.0 CALM 0 0 0 0 1017.0 1017.7 0.0
01/01:30am 1.7 -0.1 1.0 95 0.3 CALM 0 0 0 0 1017.1 - 0.0
01/01:00am 2.2 0.4 1.5 95 0.3 CALM 0 0 0 0 1017.5 1018.2 0.0
01/12:30am 2.6 0.9 1.7 94 0.4 CALM 0 0 0 0 1017.6 - 0.0
01/12:00am 2.9 1.2 1.9 93 0.4 W 0 0 0 0 1017.7 1018.4 0.0
 
Date/Time
EST
Tmp

°C
App
Tmp
°C
Dew
Point
°C
Rel
Hum
%
Delta-T

°C
Wind Press
QNH
hPa
Press
MSL
hPa
Rain
since
9 am
mm
Dir
 
Spd
km/h
Gust
km/h
Spd
kts
Gust
kts
31/11:30pm 3.5 1.9 2.3 92 0.5 CALM 0 0 0 0 1017.8 - 0.0
31/11:00pm 4.3 2.8 3.1 92 0.5 CALM 0 0 0 0 1017.9 1018.6 0.0
31/10:30pm 4.5 2.9 2.5 87 0.8 CALM 0 0 0 0 1018.1 - 0.0
31/10:00pm 6.0 3.5 3.7 85 1.0 E 6 7 3 4 1018.3 1019.0 0.0
31/09:30pm 6.7 4.6 3.9 82 1.2 ESE 4 7 2 4 1018.3 - 0.0
31/09:00pm 7.2 4.7 3.6 78 1.6 E 6 7 3 4 1018.2 1018.9 0.0
31/08:30pm 8.4 5.8 4.4 76 1.8 E 7 9 4 5 1018.2 - 0.0
31/08:00pm 9.3 6.9 4.3 71 2.3 NE 6 7 3 4 1018.2 1018.9 0.0
31/07:30pm 10.3 8.6 4.0 65 2.9 SE 2 6 1 3 1017.9 - 0.0
31/07:00pm 11.7 8.4 4.4 61 3.4 N 11 19 6 10 1017.8 1018.5 0.0
31/06:30pm 12.5 8.8 4.5 58 3.8 N 13 19 7 10 1017.6 - 0.0
31/06:00pm 13.2 9.6 4.9 57 4.0 N 13 20 7 11 1017.5 1018.2 0.0
31/05:30pm 14.0 10.4 4.9 54 4.4 N 13 20 7 11 1017.3 - 0.0
31/05:00pm 15.0 11.7 4.4 49 5.1 NNW 11 19 6 10 1017.1 1017.8 0.0
31/04:30pm 15.9 11.8 4.6 47 5.5 NNW 15 24 8 13 1017.0 - 0.0
31/04:00pm 16.3 12.1 4.0 44 5.9 N 15 20 8 11 1016.8 1017.5 0.0
31/03:30pm 16.5 12.6 5.2 47 5.6 NNW 15 20 8 11 1017.0 - 0.0
31/03:00pm 16.9 13.5 5.8 48 5.5 NNW 13 22 7 12 1017.1 1017.8 0.0
31/02:30pm 16.8 12.9 5.4 47 5.7 NNE 15 24 8 13 1017.6 - 0.0
31/02:00pm 16.6 12.8 5.9 49 5.3 N 15 22 8 12 1017.9 1018.6 0.0
31/01:30pm 16.3 12.6 6.2 51 5.1 N 15 20 8 11 1018.1 - 0.0
31/01:00pm 15.8 12.7 5.4 50 5.1 NNW 11 17 6 9 1018.5 1019.2 0.0
31/12:30pm 15.0 12.2 6.8 58 4.1 NNE 11 17 6 9 1019.1 - 0.0
31/12:00pm 14.0 11.5 6.6 61 3.7 NNW 9 15 5 8 1019.8 1020.5 0.0
31/11:30am 12.9 10.0 6.3 64 3.2 N 11 17 6 9 1020.4 - 0.0
31/11:00am 11.8 9.0 5.2 64 3.1 N 9 15 5 8 1021.2 1021.9 0.0
31/10:30am 10.2 8.1 5.8 74 2.1 S 6 7 3 4 1021.8 - 0.0
31/10:00am 7.6 5.6 6.1 90 0.7 N 6 11 3 6 1022.1 1022.9 0.0
31/09:30am 5.7 3.9 5.6 99 0.0 WSW 4 9 2 5 1022.2 - 0.0
31/09:00am 4.8 3.2 4.7 99 0.0 WNW 2 7 1 4 1022.3 1023.1 0.0
31/08:30am 4.4 2.8 4.3 99 0.0 W 2 6 1 3 1022.4 - 0.0
31/08:00am 3.2 1.0 3.1 99 0.0 WSW 4 6 2 3 1022.4 1023.2 0.0
31/07:30am 2.7 1.1 2.6 99 0.0 CALM 0 0 0 0 1022.3 - 0.0
31/07:00am 2.5 0.1 2.4 99 0.0 WSW 4 7 2 4 1022.2 1023.0 0.0
31/06:30am 2.1 -0.3 2.0 99 0.0 W 4 6 2 3 1021.8 - 0.0
31/06:00am 1.2 -0.6 1.1 99 0.0 CALM 0 0 0 0 1021.6 1022.3 0.0
31/05:30am 0.4 -1.6 0.0 97 0.2 CALM 0 0 0 0 1021.6 - 0.0
31/05:00am 0.2 -1.8 -0.4 96 0.2 CALM 0 0 0 0 1021.5 1022.2 0.0
31/04:30am 0.6 -1.4 -0.1 95 0.3 CALM 0 0 0 0 1021.6 - 0.0
31/04:00am 0.9 -1.0 0.3 96 0.2 CALM 0 0 0 0 1021.7 1022.4 0.0
31/03:30am 1.5 -0.3 1.1 97 0.2 CALM 0 0 0 0 1021.8 - 0.0
31/03:00am 1.8 0.0 1.1 95 0.3 CALM 0 0 0 0 1021.9 1022.7 0.0
31/02:30am 2.1 0.3 1.2 94 0.4 CALM 0 0 0 0 1022.2 - 0.0
31/02:00am 2.8 1.1 2.1 95 0.3 CALM 0 0 0 0 1022.4 1023.2 0.0
31/01:30am 3.0 1.3 2.0 93 0.4 CALM 0 0 0 0 1022.6 - 0.0
31/01:00am 3.9 2.4 3.2 95 0.3 CALM 0 0 0 0 1022.9 1023.6 0.0
31/12:30am 3.9 2.4 2.9 93 0.4 CALM 0 0 0 0 1023.2 - 0.0
31/12:00am 5.0 3.7 4.0 93 0.4 CALM 0 0 0 0 1023.2 1024.0 0.0
 
Date/Time
EST
Tmp

°C
App
Tmp
°C
Dew
Point
°C
Rel
Hum
%
Delta-T

°C
Wind Press
QNH
hPa
Press
MSL
hPa
Rain
since
9 am
mm
Dir
 
Spd
km/h
Gust
km/h
Spd
kts
Gust
kts
30/11:30pm 5.5 4.2 4.2 91 0.6 CALM 0 0 0 0 1023.4 - 0.0
30/11:00pm 6.0 4.7 4.0 87 0.9 CALM 0 0 0 0 1023.6 1024.4 0.0
30/10:30pm 7.3 5.1 5.1 86 1.0 E 6 9 3 5 1023.6 - 0.0
30/10:00pm 8.0 6.1 5.1 82 1.3 E 4 7 2 4 1023.7 1024.5 0.0
30/09:30pm 8.8 6.5 5.7 81 1.5 ESE 7 9 4 5 1023.8 - 0.0
30/09:00pm 8.8 7.7 5.2 78 1.7 CALM 0 0 0 0 1023.7 1024.5 0.0
30/08:30pm 9.9 8.1 5.5 74 2.1 W 4 6 2 3 1023.8 - 0.0
30/08:00pm 11.1 9.0 5.8 70 2.5 N 6 9 3 5 1023.5 1024.3 0.0
30/07:30pm 12.0 9.8 6.1 67 2.9 NNW 7 11 4 6 1023.5 - 0.0
30/07:00pm 12.2 9.6 6.3 67 2.9 ENE 9 13 5 7 1023.1 1023.8 0.0
30/06:30pm 13.0 10.4 5.9 62 3.5 ENE 9 15 5 8 1023.0 - 0.0
30/06:00pm 13.1 10.8 5.0 58 3.9 ESE 6 7 3 4 1022.7 1023.5 0.0
30/05:30pm 13.9 11.4 4.8 54 4.4 E 7 11 4 6 1022.5 - 0.0
30/05:00pm 15.2 12.3 4.6 49 5.1 NE 9 15 5 8 1022.4 1023.2 0.0
30/04:30pm 16.0 12.5 3.4 43 6.0 ENE 11 17 6 9 1022.2 - 0.0
30/04:00pm 16.6 12.9 2.2 38 6.7 ENE 11 17 6 9 1022.2 1023.0 0.0
30/03:30pm 17.4 15.1 2.6 37 7.0 NNW 4 7 2 4 1022.3 - 0.0
30/03:00pm 16.7 13.4 2.3 38 6.7 SSE 9 15 5 8 1022.5 1023.3 0.0
30/02:30pm 16.7 13.5 3.0 40 6.5 SE 9 17 5 9 1022.9 - 0.0
30/02:00pm 16.1 13.0 3.5 43 6.0 ESE 9 17 5 9 1023.4 1024.2 0.0
30/01:30pm 16.2 12.7 5.5 49 5.3 SE 13 19 7 10 1023.7 - 0.0
30/01:00pm 15.4 11.7 4.2 47 5.3 ESE 13 20 7 11 1024.1 1024.9 0.0
30/12:30pm 15.2 11.2 4.9 50 5.0 SE 15 20 8 11 1024.6 - 0.0
30/12:00pm 14.3 9.8 4.0 50 4.8 SSW 17 24 9 13 1025.1 1025.9 0.0
30/11:30am 14.0 9.4 3.8 50 4.8 S 17 24 9 13 1025.6 - 0.0
30/11:00am 13.7 8.8 4.0 52 4.5 S 19 28 10 15 1026.0 1026.8 0.0
30/10:30am 12.5 6.9 3.5 54 4.2 S 22 32 12 17 1026.2 - 0.0
30/10:00am 11.4 5.8 3.2 57 3.7 S 22 33 12 18 1026.4 1027.3 0.0
30/09:30am 10.9 6.2 3.2 59 3.5 S 17 30 9 16 1026.6 - 0.0
30/09:00am 9.7 5.3 2.6 61 3.1 S 15 24 8 13 1026.8 1027.6 0.0
30/08:30am 8.5 4.0 1.9 63 2.8 SSE 15 28 8 15 1027.1 - 0.0
30/08:00am 8.0 4.2 1.6 64 2.7 SE 11 24 6 13 1027.3 1028.1 0.0
30/07:30am 7.0 3.9 1.3 67 2.4 SE 7 19 4 10 1027.1 - 0.0
30/07:00am 6.1 2.2 1.2 71 2.0 SSE 11 20 6 11 1027.0 1027.8 0.0
30/06:30am 5.2 1.3 1.3 76 1.6 S 11 20 6 11 1027.0 - 0.0
30/06:00am 5.5 1.6 1.2 74 1.8 S 11 17 6 9 1026.7 1027.5 0.0
30/05:30am 5.6 0.6 1.5 75 1.7 S 17 26 9 14 1026.2 - 0.0
30/05:00am 6.3 1.3 1.6 72 1.9 S 17 28 9 15 1026.3 1027.2 0.0
30/04:30am 6.5 1.2 1.8 72 2.0 S 19 32 10 17 1026.3 - 0.0
30/04:00am 6.6 1.2 2.3 74 1.8 S 20 30 11 16 1026.2 1027.1 0.0
30/03:30am 6.8 1.1 2.7 75 1.8 SSE 22 39 12 21 1026.4 - 0.0
30/03:00am 7.0 1.8 2.7 74 1.8 SSE 19 33 10 18 1026.4 1027.3 0.0
30/02:30am 7.4 2.1 2.9 73 2.0 SE 20 33 11 18 1026.3 - 0.0
30/02:00am 7.4 3.0 2.9 73 1.9 SSE 15 24 8 13 1026.4 1027.3 0.0
30/01:30am 7.8 3.1 3.3 73 2.0 SE 17 28 9 15 1026.4 - 0.0
30/01:00am 7.9 3.3 3.6 74 1.9 ESE 17 26 9 14 1026.6 1027.4 0.0
30/12:30am 8.3 3.7 3.8 73 2.0 SE 17 22 9 12 1026.4 - 0.0
30/12:00am 9.2 4.1 4.0 70 2.3 SSE 20 33 11 18 1026.4 1027.3 0.0
 
Date/Time
EST
Tmp

°C
App
Tmp
°C
Dew
Point
°C
Rel
Hum
%
Delta-T

°C
Wind Press
QNH
hPa
Press
MSL
hPa
Rain
since
9 am
mm
Dir
 
Spd
km/h
Gust
km/h
Spd
kts
Gust
kts
29/11:30pm 9.3 5.2 4.5 72 2.2 SE 15 28 8 15 1026.7 - 0.0
29/11:00pm 8.4 5.5 4.4 76 1.8 SE 9 15 5 8 1026.7 1027.5 0.0
29/10:30pm 7.0 5.6 3.6 79 1.5 CALM 0 0 0 0 1026.8 - 0.0
29/10:00pm 7.3 5.0 2.8 73 1.9 SSW 4 7 2 4 1026.8 1027.6 0.0
29/09:30pm 8.6 5.8 3.4 70 2.3 E 7 11 4 6 1026.9 - 0.0
29/09:00pm 9.4 6.6 3.2 65 2.7 E 7 11 4 6 1026.9 1027.7 0.0
29/08:30pm 11.6 7.4 3.6 58 3.7 S 15 24 8 13 1026.8 - 0.0
29/08:00pm 11.7 8.2 3.5 57 3.7 SSE 11 17 6 9 1026.4 1027.3 0.0
29/07:30pm 12.2 8.3 3.4 55 4.0 SSE 13 19 7 10 1026.3 - 0.0
29/07:00pm 13.0 8.3 3.1 51 4.5 SSE 17 24 9 13 1026.1 1027.0 0.0
29/06:30pm 13.5 9.2 3.3 50 4.7 SSE 15 24 8 13 1025.9 - 0.0

Latest Capital City Observations: Canberra | Sydney | Melbourne | Brisbane | Adelaide | Perth | Hobart | Darwin

Other Formats:

Comma delimited format used in spreadsheet applications
http://www.bom.gov.au/fwo/IDN60903/IDN60903.94925.axf

JavaScript Object Notation format (JSON) in row-major order
http://www.bom.gov.au/fwo/IDN60903/IDN60903.94925.json